Time,TemperatureF,DewpointF,PressureIn,WindDirection,WindDirectionDegrees,WindSpeedMPH,WindSpeedGustMPH,Humidity,HourlyPrecipIn,Conditions,Clouds,dailyrainin,SoftwareType,DateUTC
2013-10-03 00:57:00,60.6,52.4,29.95,NE,45,8.1,8.1,74,0.00,,BKN,0.00,WUHU21623XXSP,2013-10-02 21:57:00,
2013-10-03 01:57:00,59.7,52.9,29.96,NE,45,1.8,1.8,78,0.00,,BKN,0.00,WUHU21623XXSP,2013-10-02 22:57:00,
2013-10-03 02:57:00,59.2,53.4,29.98,NNE,23,0.0,0.0,81,0.00,,BKN,0.04,WUHU21623XXSP,2013-10-02 23:57:00,
2013-10-03 03:57:00,59.2,54.1,29.98,East,90,5.6,5.6,83,0.00,,BKN,0.10,WUHU21623XXSP,2013-10-03 00:57:00,
2013-10-03 04:57:00,59.4,51.6,29.98,East,90,3.4,3.4,75,0.00,,BKN,0.11,WUHU21623XXSP,2013-10-03 01:57:00,
2013-10-03 05:57:00,59.5,51.0,30.01,NE,45,3.7,3.7,73,0.00,,BKN,0.11,WUHU21623XXSP,2013-10-03 02:57:00,
2013-10-03 06:59:00,59.7,50.0,30.02,NNE,22,0.0,3.7,70,0.00,,BKN,0.11,WUHU21623XXSP,2013-10-03 03:59:00,
2013-10-03 07:01:00,59.5,49.8,30.02,NE,45,0.0,10.6,70,0.00,,BKN,0.11,WUHU21623XXSP,2013-10-03 04:01:00,
2013-10-03 07:06:00,59.4,49.7,30.03,NE,45,3.4,10.6,70,0.00,,BKN,0.11,WUHU21623XXSP,2013-10-03 04:06:00,
2013-10-03 07:11:00,59.4,49.7,30.03,NE,45,2.0,10.3,70,0.00,,BKN,0.11,WUHU21623XXSP,2013-10-03 04:11:00,
2013-10-03 07:16:00,59.2,49.6,30.03,NNE,22,5.4,10.3,70,0.00,,BKN,0.11,WUHU21623XXSP,2013-10-03 04:16:00,
2013-10-03 07:21:00,59.2,49.2,30.03,NE,45,3.4,14.3,69,0.00,,BKN,0.11,WUHU21623XXSP,2013-10-03 04:21:00,
2013-10-03 07:26:00,59.4,49.4,30.03,NE,45,8.1,14.3,69,0.00,,BKN,0.11,WUHU21623XXSP,2013-10-03 04:26:00,
2013-10-03 07:31:00,59.4,49.0,30.04,North,0,3.4,10.1,68,0.00,,OVC,0.11,WUHU21623XXSP,2013-10-03 04:31:00,
2013-10-03 07:36:00,59.5,49.1,30.04,NNE,22,2.2,9.8,68,0.00,,OVC,0.11,WUHU21623XXSP,2013-10-03 04:36:00,
2013-10-03 07:41:00,59.5,48.7,30.04,ENE,67,8.9,13.1,67,0.00,,OVC,0.11,WUHU21623XXSP,2013-10-03 04:41:00,
2013-10-03 07:46:00,59.5,48.7,30.04,NNE,22,4.0,15.9,67,0.00,,OVC,0.11,WUHU21623XXSP,2013-10-03 04:46:00,
2013-10-03 07:51:00,59.5,48.3,30.04,North,0,4.9,17.5,66,0.00,,OVC,0.11,WUHU21623XXSP,2013-10-03 04:51:00,
2013-10-03 07:56:00,59.5,48.3,30.04,North,0,9.1,17.5,66,0.00,,BKN,0.11,WUHU21623XXSP,2013-10-03 04:56:00,
2013-10-03 08:02:00,59.5,47.9,30.04,NNE,22,1.8,12.8,65,0.00,,BKN,0.11,WUHU21623XXSP,2013-10-03 05:02:00,
2013-10-03 08:07:00,59.5,47.9,30.04,ENE,67,4.4,12.8,65,0.00,,BKN,0.11,WUHU21623XXSP,2013-10-03 05:07:00,
2013-10-03 08:12:00,59.7,48.1,30.05,NE,45,1.4,11.6,65,0.00,,BKN,0.11,WUHU21623XXSP,2013-10-03 05:12:00,
2013-10-03 08:17:00,59.7,48.1,30.04,North,0,0.0,11.3,65,0.00,,BKN,0.11,WUHU21623XXSP,2013-10-03 05:17:00,
2013-10-03 08:22:00,59.7,48.1,30.05,NNE,22,10.3,14.5,65,0.00,,BKN,0.11,WUHU21623XXSP,2013-10-03 05:22:00,
2013-10-03 08:27:00,59.7,48.5,30.05,NE,45,9.8,14.5,66,0.00,,BKN,0.11,WUHU21623XXSP,2013-10-03 05:27:00,
2013-10-03 08:32:00,59.9,48.3,30.05,East,90,5.4,15.7,65,0.00,,BKN,0.11,WUHU21623XXSP,2013-10-03 05:32:00,
2013-10-03 08:37:00,59.9,47.8,30.06,North,0,9.4,15.7,64,0.00,,BKN,0.11,WUHU21623XXSP,2013-10-03 05:37:00,
2013-10-03 08:42:00,60.1,48.4,30.06,NNE,22,0.0,13.5,65,0.00,,BKN,0.11,WUHU21623XXSP,2013-10-03 05:42:00,
2013-10-03 08:47:00,60.3,48.6,30.06,North,0,4.4,11.6,65,0.00,,BKN,0.11,WUHU21623XXSP,2013-10-03 05:47:00,
2013-10-03 08:52:00,60.4,48.7,30.06,NE,45,8.9,15.5,65,0.00,,BKN,0.11,WUHU21623XXSP,2013-10-03 05:52:00,
2013-10-03 08:57:00,60.6,48.9,30.07,NE,45,9.1,15.5,65,0.00,,BKN,0.11,WUHU21623XXSP,2013-10-03 05:57:00,
2013-10-03 09:02:00,60.8,49.1,30.07,NNE,22,6.9,15.7,65,0.00,,BKN,0.11,WUHU21623XXSP,2013-10-03 06:02:00,
2013-10-03 09:07:00,60.4,48.7,30.07,NE,45,3.2,15.7,65,0.00,,BKN,0.11,WUHU21623XXSP,2013-10-03 06:07:00,
2013-10-03 09:12:00,60.3,48.6,30.07,NE,45,15.0,16.7,65,0.00,,BKN,0.11,WUHU21623XXSP,2013-10-03 06:12:00,
2013-10-03 09:17:00,60.3,49.0,30.07,NE,45,0.0,16.7,66,0.00,,BKN,0.11,WUHU21623XXSP,2013-10-03 06:17:00,
2013-10-03 09:22:00,60.3,49.0,30.07,NNE,22,4.9,15.7,66,0.00,,BKN,0.11,WUHU21623XXSP,2013-10-03 06:22:00,
2013-10-03 09:27:00,60.4,49.1,30.08,North,0,7.6,15.3,66,0.00,,BKN,0.11,WUHU21623XXSP,2013-10-03 06:27:00,
2013-10-03 09:57:00,62.2,50.4,30.09,NE,45,14.5,14.5,65,0.00,,BKN,0.11,WUHU21623XXSP,2013-10-03 06:57:00,
2013-10-03 10:57:00,63.5,49.5,30.11,NE,45,4.0,4.0,60,0.00,,BKN,0.11,WUHU21623XXSP,2013-10-03 07:57:00,
2013-10-03 11:57:00,62.2,48.3,30.13,NE,45,8.4,8.4,60,0.00,,BKN,0.11,WUHU21623XXSP,2013-10-03 08:57:00,
2013-10-03 12:57:00,64.6,48.7,30.14,NNE,23,4.0,4.0,56,0.00,,BKN,0.11,WUHU21623XXSP,2013-10-03 09:57:00,
2013-10-03 13:17:00,63.5,46.6,30.15,NE,45,10.8,10.8,54,0.00,,BKN,0.11,WUHU21623XXSP,2013-10-03 10:17:00,
2013-10-03 13:22:00,63.1,47.3,30.15,NNW,337,3.7,16.7,56,0.00,,BKN,0.11,WUHU21623XXSP,2013-10-03 10:22:00,
2013-10-03 13:27:00,63.0,47.2,30.15,NNE,22,12.5,18.7,56,0.00,,BKN,0.11,WUHU21623XXSP,2013-10-03 10:27:00,
2013-10-03 13:32:00,63.1,47.3,30.15,NE,45,11.6,19.5,56,0.00,,BKN,0.11,WUHU21623XXSP,2013-10-03 10:32:00,
2013-10-03 13:37:00,63.1,47.3,30.15,NE,45,9.8,19.5,56,0.00,,BKN,0.11,WUHU21623XXSP,2013-10-03 10:37:00,
2013-10-03 13:42:00,63.0,47.6,30.15,ENE,67,0.0,17.7,57,0.00,,BKN,0.11,WUHU21623XXSP,2013-10-03 10:42:00,
2013-10-03 13:47:00,62.8,47.5,30.15,East,90,4.0,17.7,57,0.00,,BKN,0.11,WUHU21623XXSP,2013-10-03 10:47:00,
2013-10-03 13:52:00,62.8,47.5,30.15,NNE,22,12.1,19.1,57,0.00,,BKN,0.11,WUHU21623XXSP,2013-10-03 10:52:00,
2013-10-03 13:57:00,62.4,47.1,30.15,NE,45,5.9,19.1,57,0.00,,BKN,0.11,WUHU21623XXSP,2013-10-03 10:57:00,
2013-10-03 14:02:00,63.0,47.6,30.15,NE,45,4.7,15.9,57,0.00,,BKN,0.11,WUHU21623XXSP,2013-10-03 11:02:00,
2013-10-03 14:07:00,62.8,46.5,30.15,NNE,22,2.2,15.9,55,0.00,,BKN,0.11,WUHU21623XXSP,2013-10-03 11:07:00,
2013-10-03 14:12:00,62.8,46.5,30.15,North,0,3.2,15.9,55,0.00,,BKN,0.11,WUHU21623XXSP,2013-10-03 11:12:00,
2013-10-03 14:17:00,63.5,47.1,30.15,SE,135,1.2,15.7,55,0.00,,BKN,0.11,WUHU21623XXSP,2013-10-03 11:17:00,
2013-10-03 14:22:00,64.0,46.1,30.15,NE,45,5.9,12.8,52,0.00,,BKN,0.11,WUHU21623XXSP,2013-10-03 11:22:00,
2013-10-03 14:27:00,64.0,45.5,30.15,NE,45,9.4,18.7,51,0.00,,BKN,0.11,WUHU21623XXSP,2013-10-03 11:27:00,
2013-10-03 14:32:00,63.9,45.5,30.14,ESE,112,0.0,18.7,51,0.00,,BKN,0.11,WUHU21623XXSP,2013-10-03 11:32:00,
2013-10-03 14:37:00,63.9,45.5,30.14,NE,45,0.0,13.3,51,0.00,,BKN,0.11,WUHU21623XXSP,2013-10-03 11:37:00,
2013-10-03 14:42:00,64.0,46.6,30.14,North,0,4.9,13.3,53,0.00,,BKN,0.11,WUHU21623XXSP,2013-10-03 11:42:00,
2013-10-03 14:47:00,64.2,46.8,30.14,NNE,22,12.3,15.7,53,0.00,,BKN,0.11,WUHU21623XXSP,2013-10-03 11:47:00,
2013-10-03 14:52:00,64.6,47.2,30.14,ESE,112,0.0,15.7,53,0.00,,BKN,0.11,WUHU21623XXSP,2013-10-03 11:52:00,
2013-10-03 14:57:00,64.8,47.3,30.14,NE,45,2.8,18.3,53,0.00,,BKN,0.11,WUHU21623XXSP,2013-10-03 11:57:00,
2013-10-03 15:02:00,64.0,46.6,30.14,North,0,1.2,18.9,53,0.00,,BKN,0.11,WUHU21623XXSP,2013-10-03 12:02:00,
2013-10-03 15:07:00,63.3,46.5,30.14,NE,45,1.8,18.9,54,0.00,,BKN,0.11,WUHU21623XXSP,2013-10-03 12:07:00,
2013-10-03 15:12:00,63.0,46.2,30.14,ESE,112,6.4,15.9,54,0.00,,BKN,0.11,WUHU21623XXSP,2013-10-03 12:12:00,
2013-10-03 15:17:00,63.5,46.1,30.14,NE,45,5.4,13.8,53,0.00,,BKN,0.11,WUHU21623XXSP,2013-10-03 12:17:00,
2013-10-03 15:22:00,63.5,45.6,30.14,NE,45,16.5,19.1,52,0.00,,BKN,0.11,WUHU21623XXSP,2013-10-03 12:22:00,
2013-10-03 15:27:00,63.3,45.9,30.14,ESE,112,5.9,19.1,53,0.00,,BKN,0.11,WUHU21623XXSP,2013-10-03 12:27:00,
2013-10-03 15:32:00,63.5,45.6,30.14,East,90,8.4,20.1,52,0.00,,BKN,0.11,WUHU21623XXSP,2013-10-03 12:32:00,
2013-10-03 15:37:00,63.5,45.1,30.14,West,270,5.4,20.1,51,0.00,,BKN,0.11,WUHU21623XXSP,2013-10-03 12:37:00,
2013-10-03 15:42:00,63.1,44.7,30.14,NNE,22,12.3,19.1,51,0.00,,BKN,0.11,WUHU21623XXSP,2013-10-03 12:42:00,
2013-10-03 15:47:00,62.8,44.4,30.14,ENE,67,10.1,20.1,51,0.00,,BKN,0.11,WUHU21623XXSP,2013-10-03 12:47:00,
2013-10-03 15:52:00,62.8,44.4,30.14,NE,45,5.6,21.5,51,0.00,,BKN,0.11,WUHU21623XXSP,2013-10-03 12:52:00,
2013-10-03 15:57:00,62.8,44.4,30.14,NNE,22,4.9,21.5,51,0.00,,BKN,0.11,WUHU21623XXSP,2013-10-03 12:57:00,
2013-10-03 16:02:00,63.7,45.3,30.14,South,180,0.0,19.7,51,0.00,,BKN,0.11,WUHU21623XXSP,2013-10-03 13:02:00,
2013-10-03 16:07:00,63.9,44.9,30.13,SSE,157,0.0,19.7,50,0.00,,SCT,0.11,WUHU21623XXSP,2013-10-03 13:07:00,
2013-10-03 16:12:00,63.5,45.1,30.14,ESE,112,8.1,17.3,51,0.00,,SCT,0.11,WUHU21623XXSP,2013-10-03 13:12:00,
2013-10-03 16:17:00,62.8,45.0,30.14,East,90,4.9,13.8,52,0.00,,SCT,0.11,WUHU21623XXSP,2013-10-03 13:17:00,
2013-10-03 16:22:00,61.9,44.6,30.14,North,0,5.9,21.5,53,0.00,,SCT,0.11,WUHU21623XXSP,2013-10-03 13:22:00,
2013-10-03 16:27:00,61.5,45.3,30.14,NE,45,4.2,21.5,55,0.00,,SCT,0.11,WUHU21623XXSP,2013-10-03 13:27:00,
2013-10-03 16:32:00,61.7,45.9,30.15,ENE,67,3.7,15.3,56,0.00,,SCT,0.11,WUHU21623XXSP,2013-10-03 13:32:00,
2013-10-03 16:37:00,62.1,46.3,30.15,ESE,112,7.2,15.0,56,0.00,,SCT,0.11,WUHU21623XXSP,2013-10-03 13:37:00,
2013-10-03 16:42:00,62.6,46.8,30.14,North,0,4.9,20.1,56,0.00,,SCT,0.11,WUHU21623XXSP,2013-10-03 13:42:00,
2013-10-03 16:47:00,62.8,46.5,30.15,ENE,67,9.6,20.1,55,0.00,,SCT,0.11,WUHU21623XXSP,2013-10-03 13:47:00,
2013-10-03 16:52:00,62.8,46.0,30.15,North,0,3.7,18.3,54,0.00,,SCT,0.11,WUHU21623XXSP,2013-10-03 13:52:00,
2013-10-03 16:57:00,63.0,46.2,30.15,ESE,112,6.4,18.3,54,0.00,,SCT,0.11,WUHU21623XXSP,2013-10-03 13:57:00,
2013-10-03 17:02:00,62.8,46.0,30.15,NE,45,5.6,21.1,54,0.00,,SCT,0.11,WUHU21623XXSP,2013-10-03 14:02:00,
2013-10-03 17:07:00,62.1,45.8,30.15,SE,135,5.4,21.1,55,0.00,,SCT,0.11,WUHU21623XXSP,2013-10-03 14:07:00,
2013-10-03 17:12:00,61.7,45.5,30.15,NE,45,17.3,20.7,55,0.00,,SCT,0.11,WUHU21623XXSP,2013-10-03 14:12:00,
2013-10-03 17:17:00,61.5,45.8,30.15,ENE,67,10.3,20.7,56,0.00,,SCT,0.11,WUHU21623XXSP,2013-10-03 14:17:00,
2013-10-03 17:22:00,61.5,45.8,30.14,North,0,0.0,18.9,56,0.00,,SCT,0.11,WUHU21623XXSP,2013-10-03 14:22:00,
2013-10-03 17:27:00,61.5,45.8,30.15,North,0,10.3,18.9,56,0.00,,SCT,0.11,WUHU21623XXSP,2013-10-03 14:27:00,
2013-10-03 17:32:00,61.3,45.6,30.14,ENE,67,0.0,19.9,56,0.00,,SCT,0.11,WUHU21623XXSP,2013-10-03 14:32:00,
2013-10-03 17:37:00,61.2,45.5,30.15,ENE,67,9.4,19.9,56,0.00,,SCT,0.11,WUHU21623XXSP,2013-10-03 14:37:00,
2013-10-03 17:42:00,61.0,45.3,30.15,ENE,67,15.7,19.9,56,0.00,,SCT,0.11,WUHU21623XXSP,2013-10-03 14:42:00,
2013-10-03 17:47:00,60.6,44.9,30.15,NE,45,4.9,19.9,56,0.00,,SCT,0.11,WUHU21623XXSP,2013-10-03 14:47:00,
2013-10-03 17:52:00,60.8,45.1,30.14,NE,45,9.1,19.1,56,0.00,,SCT,0.11,WUHU21623XXSP,2013-10-03 14:52:00,
2013-10-03 17:57:00,60.4,44.7,30.15,North,0,16.9,16.9,56,0.00,,SCT,0.11,WUHU21623XXSP,2013-10-03 14:57:00,
2013-10-03 18:02:00,60.4,44.7,30.15,NE,45,11.8,16.9,56,0.00,,SCT,0.11,WUHU21623XXSP,2013-10-03 15:02:00,
2013-10-03 18:07:00,60.3,44.1,30.15,North,0,14.7,18.9,55,0.00,,SCT,0.11,WUHU21623XXSP,2013-10-03 15:07:00,
2013-10-03 18:12:00,60.1,44.4,30.15,NNE,22,12.1,18.9,56,0.00,,SCT,0.11,WUHU21623XXSP,2013-10-03 15:12:00,
2013-10-03 18:17:00,59.9,43.8,30.16,NNE,22,15.5,18.9,55,0.00,,SCT,0.11,WUHU21623XXSP,2013-10-03 15:17:00,
2013-10-03 18:22:00,59.9,44.3,30.16,NNE,22,2.2,18.9,56,0.00,,SCT,0.11,WUHU21623XXSP,2013-10-03 15:22:00,
2013-10-03 18:27:00,59.7,44.1,30.16,NNE,22,11.6,19.1,56,0.00,,SCT,0.11,WUHU21623XXSP,2013-10-03 15:27:00,
2013-10-03 18:32:00,59.7,44.1,30.16,NNE,22,18.3,24.1,56,0.00,,SCT,0.11,WUHU21623XXSP,2013-10-03 15:32:00,
2013-10-03 18:37:00,59.5,44.4,30.16,NE,45,14.3,24.1,57,0.00,,SCT,0.11,WUHU21623XXSP,2013-10-03 15:37:00,
2013-10-03 18:42:00,59.4,43.8,30.16,NE,45,1.4,16.9,56,0.00,,SCT,0.11,WUHU21623XXSP,2013-10-03 15:42:00,
2013-10-03 18:47:00,59.4,43.8,30.16,NNW,337,6.9,21.5,56,0.00,,SCT,0.11,WUHU21623XXSP,2013-10-03 15:47:00,
2013-10-03 18:52:00,59.4,44.3,30.17,NNE,22,6.2,24.3,57,0.00,,SCT,0.11,WUHU21623XXSP,2013-10-03 15:52:00,
2013-10-03 18:57:00,59.4,44.3,30.16,ENE,67,0.8,24.3,57,0.00,,SCT,0.11,WUHU21623XXSP,2013-10-03 15:57:00,
2013-10-03 19:02:00,59.5,44.4,30.16,NNE,22,8.9,22.4,57,0.00,,SCT,0.11,WUHU21623XXSP,2013-10-03 16:02:00,
2013-10-03 19:07:00,59.4,44.7,30.16,North,0,7.4,22.4,58,0.00,,SCT,0.11,WUHU21623XXSP,2013-10-03 16:07:00,
2013-10-03 19:12:00,59.4,44.7,30.16,NNE,22,4.7,18.9,58,0.00,,SCT,0.11,WUHU21623XXSP,2013-10-03 16:12:00,
2013-10-03 19:17:00,59.4,44.7,30.16,NNE,22,13.1,17.7,58,0.00,,SCT,0.11,WUHU21623XXSP,2013-10-03 16:17:00,
2013-10-03 19:22:00,59.2,44.1,30.16,NE,45,12.8,19.5,57,0.00,,SCT,0.11,WUHU21623XXSP,2013-10-03 16:22:00,
2013-10-03 19:27:00,59.2,44.1,30.17,North,0,4.9,20.9,57,0.00,,SCT,0.11,WUHU21623XXSP,2013-10-03 16:27:00,
2013-10-03 19:32:00,59.2,44.1,30.17,NNE,22,14.1,20.9,57,0.00,,SCT,0.11,WUHU21623XXSP,2013-10-03 16:32:00,
2013-10-03 19:37:00,59.0,44.3,30.17,NNE,22,7.2,22.1,58,0.00,,SCT,0.11,WUHU21623XXSP,2013-10-03 16:37:00,
2013-10-03 19:42:00,59.0,44.3,30.17,ENE,67,15.3,22.1,58,0.00,,SCT,0.11,WUHU21623XXSP,2013-10-03 16:42:00,
2013-10-03 19:47:00,58.8,44.2,30.18,NNE,22,7.2,20.9,58,0.00,,SCT,0.11,WUHU21623XXSP,2013-10-03 16:47:00,
2013-10-03 19:52:00,58.8,44.2,30.18,East,90,2.2,19.1,58,0.00,,SCT,0.11,WUHU21623XXSP,2013-10-03 16:52:00,
2013-10-03 19:57:00,59.0,44.3,30.19,NNE,22,13.1,18.3,58,0.00,,SCT,0.11,WUHU21623XXSP,2013-10-03 16:57:00,
2013-10-03 20:02:00,59.2,45.0,30.19,NE,45,9.4,18.3,59,0.00,,SCT,0.11,WUHU21623XXSP,2013-10-03 17:02:00,
2013-10-03 20:07:00,59.0,44.8,30.19,North,0,1.8,16.5,59,0.00,,SCT,0.11,WUHU21623XXSP,2013-10-03 17:07:00,
2013-10-03 20:12:00,58.8,44.6,30.19,North,0,11.6,15.7,59,0.00,,SCT,0.11,WUHU21623XXSP,2013-10-03 17:12:00,
2013-10-03 20:57:00,58.6,44.4,30.20,ENE,68,13.5,13.5,59,0.00,,FEW,0.11,WUHU21623XXSP,2013-10-03 17:57:00,
2013-10-03 21:36:00,58.5,43.9,30.21,NE,45,2.0,2.0,58,0.00,,FEW,0.11,WUHU21623XXSP,2013-10-03 18:36:00,
2013-10-03 21:41:00,58.3,43.7,30.21,NNE,22,5.9,7.6,58,0.00,,BKN,0.11,WUHU21623XXSP,2013-10-03 18:41:00,
2013-10-03 21:46:00,58.3,43.7,30.21,NNW,337,3.2,10.6,58,0.00,,BKN,0.11,WUHU21623XXSP,2013-10-03 18:46:00,
2013-10-03 21:51:00,58.3,43.7,30.21,ENE,67,0.0,14.1,58,0.00,,BKN,0.11,WUHU21623XXSP,2013-10-03 18:51:00,
2013-10-03 21:56:00,58.1,43.5,30.22,NNE,22,0.0,14.1,58,0.00,,SCT,0.11,WUHU21623XXSP,2013-10-03 18:56:00,
2013-10-03 22:01:00,58.1,43.5,30.22,NE,45,4.7,9.1,58,0.00,,SCT,0.11,WUHU21623XXSP,2013-10-03 19:01:00,
2013-10-03 22:06:00,58.1,43.5,30.22,NNW,337,0.0,6.6,58,0.00,,SCT,0.11,WUHU21623XXSP,2013-10-03 19:06:00,
2013-10-03 22:11:00,58.1,43.5,30.22,NE,45,1.2,12.3,58,0.00,,SCT,0.11,WUHU21623XXSP,2013-10-03 19:11:00,
2013-10-03 22:16:00,58.1,43.5,30.22,SE,135,0.0,12.3,58,0.00,,SCT,0.11,WUHU21623XXSP,2013-10-03 19:16:00,
2013-10-03 22:21:00,58.1,43.5,30.22,ENE,67,5.9,9.4,58,0.00,,SCT,0.11,WUHU21623XXSP,2013-10-03 19:21:00,
2013-10-03 22:26:00,58.3,43.7,30.22,NE,45,3.7,15.3,58,0.00,,SCT,0.11,WUHU21623XXSP,2013-10-03 19:26:00,
2013-10-03 22:31:00,58.5,43.9,30.22,NNE,22,0.0,15.3,58,0.00,,SCT,0.11,WUHU21623XXSP,2013-10-03 19:31:00,
2013-10-03 22:38:00,58.5,43.4,30.22,NNE,22,12.3,12.5,57,0.00,,SCT,0.11,WUHU21623XXSP,2013-10-03 19:38:00,
2013-10-03 22:57:00,58.6,43.5,30.23,SE,135,4.7,4.7,57,0.00,,SCT,0.11,WUHU21623XXSP,2013-10-03 19:57:00,
2013-10-03 23:57:00,58.8,43.2,30.24,NNW,338,0.0,0.0,56,0.00,,SCT,0.11,WUHU21623XXSP,2013-10-03 20:57:00,